createdAt,value
2019-04-23T00:05:30.230Z,65.20
2019-04-23T00:08:39.740Z,65.50
2019-04-23T00:11:39.802Z,65.80
2019-04-23T00:14:55.051Z,66.50
2019-04-23T00:17:55.392Z,67.00
2019-04-23T00:25:12.181Z,67.90
2019-04-23T00:27:50.066Z,68.30
2019-04-23T00:33:49.637Z,69.20
2019-04-23T00:37:01.664Z,70.60
2019-04-23T00:39:57.728Z,70.80
2019-04-23T00:43:04.084Z,71.60
2019-04-23T00:45:59.385Z,72.10
2019-04-23T00:52:14.527Z,73.10
2019-04-23T00:58:21.240Z,74.80
2019-04-23T01:01:18.408Z,75.30
2019-04-23T01:04:18.703Z,76.70
2019-04-23T01:07:29.765Z,78.00
2019-04-23T01:13:44.279Z,79.30
2019-04-23T01:16:55.118Z,81.00
2019-04-23T01:22:52.941Z,83.50
2019-04-23T01:26:03.832Z,84.30
2019-04-23T01:29:20.183Z,86.80
2019-04-23T01:32:25.690Z,88.00
2019-04-23T01:35:41.326Z,89.90
2019-04-23T01:38:34.819Z,90.60
2019-04-23T01:41:33.309Z,91.60
2019-04-23T01:44:42.788Z,92.20
2019-04-23T01:47:39.291Z,93.60
2019-04-23T01:50:43.887Z,94.30
2019-04-23T01:53:45.213Z,95.10
2019-04-23T01:56:38.616Z,96.60
2019-04-23T01:59:57.993Z,98.10
2019-04-23T02:02:55.563Z,99.00
2019-04-23T02:05:58.305Z,99.90
2019-04-23T02:08:58.803Z,99.90
2019-04-23T02:11:57.439Z,99.90
2019-04-23T02:15:03.660Z,99.90
2019-04-23T02:17:58.635Z,99.90
2019-04-23T02:27:30.053Z,99.90
2019-04-23T02:33:53.430Z,99.90
2019-04-23T02:40:16.020Z,99.90
2019-04-23T02:46:17.447Z,99.90
2019-04-23T02:49:45.945Z,99.90
2019-04-23T02:52:48.854Z,99.90
2019-04-23T02:56:05.076Z,99.90
2019-04-23T02:59:11.113Z,99.90
2019-04-23T03:05:29.408Z,99.90
2019-04-23T03:08:39.435Z,99.90
2019-04-23T03:15:32.948Z,99.90
2019-04-23T03:18:47.828Z,99.90
2019-04-23T03:28:29.299Z,99.90
2019-04-23T03:33:08.428Z,99.90
2019-04-23T03:35:09.484Z,99.90
2019-04-23T03:37:33.886Z,99.90
2019-04-23T03:40:32.309Z,99.90
2019-04-23T03:46:36.945Z,99.90
2019-04-23T03:52:38.542Z,99.90
2019-04-23T03:55:54.600Z,99.90
2019-04-23T03:58:51.722Z,99.90
2019-04-23T04:04:53.654Z,99.90
2019-04-23T04:08:12.100Z,99.90
2019-04-23T04:14:36.721Z,99.90
2019-04-23T04:20:49.273Z,99.90
2019-04-23T04:23:37.753Z,99.90
2019-04-23T04:29:52.230Z,99.90
2019-04-23T04:36:28.099Z,99.90
2019-04-23T04:39:34.053Z,99.90
2019-04-23T04:42:33.255Z,99.90
2019-04-23T04:45:57.575Z,99.90
2019-04-23T04:48:56.993Z,99.90
2019-04-23T04:55:18.100Z,99.90
2019-04-23T04:58:25.992Z,99.90
2019-04-23T05:01:28.327Z,99.90
2019-04-23T05:04:52.524Z,99.90
2019-04-23T05:08:00.897Z,99.90
2019-04-23T05:11:11.707Z,99.90
2019-04-23T05:14:06.237Z,99.90
2019-04-23T05:17:53.129Z,99.90
2019-04-23T05:20:52.972Z,99.90
2019-04-23T05:26:46.508Z,99.90
2019-04-23T05:29:54.305Z,99.90
2019-04-23T05:32:58.030Z,99.90
2019-04-23T05:36:14.739Z,99.90
2019-04-23T05:39:12.186Z,99.90
2019-04-23T05:41:58.597Z,99.90
2019-04-23T05:45:02.909Z,99.90
2019-04-23T05:48:16.231Z,99.90
2019-04-23T05:51:23.652Z,99.90
2019-04-23T05:57:14.019Z,99.90
2019-04-23T06:00:23.650Z,99.90
2019-04-23T06:03:24.794Z,99.90
2019-04-23T06:09:30.487Z,99.90
2019-04-23T06:12:33.648Z,99.90
2019-04-23T06:15:32.444Z,99.90
2019-04-23T06:18:38.329Z,99.90
2019-04-23T06:21:54.897Z,99.90
2019-04-23T06:24:47.090Z,99.90
2019-04-23T06:27:51.625Z,99.90
2019-04-23T06:37:16.734Z,99.90
2019-04-23T06:40:27.721Z,99.90
2019-04-23T06:44:06.095Z,99.90
2019-04-23T06:47:06.807Z,99.90
2019-04-23T06:50:14.793Z,99.90
2019-04-23T06:53:27.166Z,99.90
2019-04-23T06:56:47.942Z,99.90
2019-04-23T07:02:59.714Z,99.90
2019-04-23T07:09:13.548Z,99.90
2019-04-23T07:12:33.824Z,99.90
2019-04-23T07:21:55.411Z,99.90
2019-04-23T07:24:49.148Z,99.90
2019-04-23T07:27:47.628Z,99.90
2019-04-23T07:31:02.152Z,99.90
2019-04-23T07:33:52.944Z,99.90
2019-04-23T07:36:55.098Z,99.90
2019-04-23T07:40:27.114Z,99.90
2019-04-23T07:43:54.555Z,99.90
2019-04-23T07:54:25.679Z,99.90
2019-04-23T07:57:26.477Z,99.90
2019-04-23T08:00:49.004Z,99.90
2019-04-23T08:03:48.247Z,99.90
2019-04-23T08:07:03.268Z,99.90
2019-04-23T08:10:15.288Z,99.90
2019-04-23T08:13:28.018Z,99.90
2019-04-23T08:22:40.776Z,99.90
2019-04-23T08:26:14.338Z,99.90
2019-04-23T08:32:12.375Z,99.90
2019-04-23T08:35:06.413Z,99.90
2019-04-23T08:38:22.560Z,99.90
2019-04-23T08:41:28.155Z,99.90
2019-04-23T08:47:44.748Z,99.90
2019-04-23T08:50:50.697Z,99.90
2019-04-23T08:53:51.624Z,99.90
2019-04-23T08:56:55.256Z,99.90
2019-04-23T08:59:58.865Z,99.90
2019-04-23T09:03:00.605Z,99.90
2019-04-23T09:09:04.620Z,99.90
2019-04-23T09:12:07.000Z,99.90
2019-04-23T09:15:18.704Z,99.90
2019-04-23T09:18:16.625Z,99.40
2019-04-23T09:21:14.168Z,98.80
2019-04-23T09:24:20.031Z,99.20
2019-04-23T09:36:34.522Z,97.20
2019-04-23T09:40:04.832Z,96.90
2019-04-23T09:43:24.241Z,97.60
2019-04-23T09:46:30.216Z,96.10
2019-04-23T09:52:43.028Z,96.30
2019-04-23T09:55:41.641Z,95.30
2019-04-23T09:58:38.899Z,94.60
2019-04-23T10:01:32.461Z,95.50
2019-04-23T10:04:32.624Z,94.50
2019-04-23T10:07:29.968Z,93.60
2019-04-23T10:10:20.732Z,92.50
2019-04-23T10:13:22.052Z,92.80
2019-04-23T10:16:25.701Z,92.70
2019-04-23T10:19:26.640Z,92.90
2019-04-23T10:22:29.226Z,92.50
2019-04-23T10:25:21.011Z,91.20
2019-04-23T10:28:49.781Z,90.90
2019-04-23T10:35:38.621Z,90.10
2019-04-23T10:38:36.517Z,88.80
2019-04-23T10:41:46.453Z,88.80
2019-04-23T10:45:27.373Z,87.60
2019-04-23T10:52:20.504Z,86.40
2019-04-23T10:55:39.779Z,85.30
2019-04-23T11:02:00.711Z,84.90
2019-04-23T11:08:14.646Z,84.40
2019-04-23T11:11:25.647Z,81.80
2019-04-23T11:14:35.434Z,80.50
2019-04-23T11:21:09.623Z,81.70
2019-04-23T11:23:51.771Z,80.30
2019-04-23T11:26:58.015Z,81.10
2019-04-23T11:30:11.921Z,78.90
2019-04-23T11:33:15.212Z,80.20
2019-04-23T11:39:08.060Z,78.40
2019-04-23T11:42:12.289Z,76.50
2019-04-23T11:45:15.275Z,77.20
2019-04-23T11:48:37.121Z,76.90
2019-04-23T11:54:17.496Z,76.10
2019-04-23T11:57:32.771Z,75.10
2019-04-23T12:00:28.832Z,74.70
2019-04-23T12:03:28.700Z,76.30
2019-04-23T12:06:54.385Z,74.60
2019-04-23T12:10:07.781Z,75.50
2019-04-23T12:13:10.488Z,75.10
2019-04-23T12:16:02.189Z,71.60
2019-04-23T12:19:33.036Z,71.70
2019-04-23T12:25:19.788Z,70.60
2019-04-23T12:28:14.129Z,71.80
2019-04-23T12:31:20.947Z,70.70
2019-04-23T12:34:25.071Z,70.00
2019-04-23T12:37:32.733Z,71.40
2019-04-23T12:40:32.338Z,71.00
2019-04-23T12:43:46.149Z,71.00
2019-04-23T12:46:38.163Z,69.90
2019-04-23T12:49:59.101Z,69.70
2019-04-23T12:52:41.405Z,69.10
2019-04-23T12:55:41.702Z,68.80
2019-04-23T12:58:34.053Z,67.40
2019-04-23T13:01:49.323Z,68.00
2019-04-23T13:04:48.731Z,67.60
2019-04-23T13:10:49.994Z,67.40
2019-04-23T13:13:58.905Z,67.10
2019-04-23T13:17:09.733Z,67.60
2019-04-23T13:20:07.644Z,65.70
2019-04-23T13:23:13.405Z,65.90
2019-04-23T13:26:04.206Z,66.20
2019-04-23T13:29:27.225Z,66.00
2019-04-23T13:32:27.476Z,65.90
2019-04-23T13:42:06.255Z,65.50
2019-04-23T13:45:18.465Z,65.00
2019-04-23T13:48:14.843Z,65.30
2019-04-23T13:51:25.663Z,65.80
2019-04-23T13:54:59.627Z,65.70
2019-04-23T14:17:00.162Z,65.00
2019-04-23T14:20:10.063Z,66.30
2019-04-23T14:23:14.327Z,65.00
2019-04-23T14:26:29.521Z,65.00
2019-04-23T14:29:15.108Z,66.20
2019-04-23T14:44:31.195Z,65.30
2019-04-23T14:47:38.143Z,66.50
2019-04-23T14:57:25.417Z,65.00
2019-04-23T15:00:33.910Z,64.90
2019-04-23T15:07:00.957Z,64.50
2019-04-23T15:10:02.974Z,64.40
2019-04-23T15:13:06.899Z,64.70
2019-04-23T15:22:21.677Z,64.20
2019-04-23T15:28:07.402Z,64.70
2019-04-23T15:31:33.244Z,65.20
2019-04-23T15:34:30.458Z,64.90
2019-04-23T15:40:41.734Z,65.30
2019-04-23T15:43:41.571Z,66.00
2019-04-23T15:49:53.874Z,65.90
2019-04-23T16:01:41.526Z,66.10
2019-04-23T16:04:31.710Z,66.70
2019-04-23T16:07:51.914Z,66.50
2019-04-23T16:11:21.566Z,66.50
2019-04-23T16:17:19.085Z,66.40
2019-04-23T16:23:05.606Z,66.20
2019-04-23T16:26:05.832Z,66.10
2019-04-23T16:29:27.494Z,66.40
2019-04-23T16:45:40.263Z,67.80
2019-04-23T16:51:57.755Z,67.90
2019-04-23T16:55:07.497Z,68.00
2019-04-23T16:58:33.461Z,68.20
2019-04-23T17:01:22.921Z,67.70
2019-04-23T17:04:40.815Z,68.30
2019-04-23T17:07:52.608Z,68.00
2019-04-23T17:11:00.110Z,68.00
2019-04-23T17:14:10.895Z,68.60
2019-04-23T17:17:08.105Z,69.00
2019-04-23T17:24:09.511Z,69.90
2019-04-23T17:26:28.729Z,69.80
2019-04-23T17:29:35.170Z,69.80
2019-04-23T17:36:15.201Z,71.10
2019-04-23T17:42:41.635Z,72.60
2019-04-23T17:45:35.582Z,73.20
2019-04-23T17:48:42.208Z,73.40
2019-04-23T17:51:53.527Z,74.10
2019-04-23T17:54:55.382Z,74.10
2019-04-23T17:58:01.194Z,74.50
2019-04-23T18:04:22.657Z,75.10
2019-04-23T18:07:32.231Z,75.80
2019-04-23T18:10:27.605Z,76.10
2019-04-23T18:13:28.390Z,76.90
2019-04-23T18:16:35.765Z,77.20
2019-04-23T18:19:30.863Z,77.30
2019-04-23T18:22:47.033Z,77.60
2019-04-23T18:25:45.075Z,78.20
2019-04-23T18:28:48.779Z,78.40
2019-04-23T18:32:16.835Z,79.10
2019-04-23T18:35:19.479Z,79.30
2019-04-23T18:38:14.762Z,79.70
2019-04-23T18:41:29.602Z,80.30
2019-04-23T18:44:33.228Z,80.30
2019-04-23T18:47:40.159Z,80.60
2019-04-23T19:00:18.875Z,81.80
2019-04-23T19:17:23.631Z,83.40
2019-04-23T19:20:04.345Z,83.40
2019-04-23T19:23:13.814Z,84.00
2019-04-23T19:26:02.573Z,84.20
2019-04-23T19:29:11.618Z,84.30
2019-04-23T19:32:08.904Z,84.70
2019-04-23T19:35:31.546Z,84.80
2019-04-23T19:38:20.609Z,85.00
2019-04-23T19:41:19.194Z,85.40
2019-04-23T19:44:27.991Z,85.70
2019-04-23T19:47:54.162Z,86.20
2019-04-23T19:50:34.270Z,86.40
2019-04-23T19:56:37.872Z,87.20
2019-04-23T19:59:46.326Z,87.50
2019-04-23T20:02:48.159Z,88.00
2019-04-23T20:05:47.197Z,88.10
2019-04-23T20:17:51.376Z,89.30
2019-04-23T20:20:55.055Z,89.40
2019-04-23T20:24:21.426Z,89.90
2019-04-23T20:27:05.984Z,90.10
2019-04-23T20:30:54.830Z,90.30
2019-04-23T20:33:59.102Z,90.40
2019-04-23T20:36:48.230Z,90.50
2019-04-23T20:42:40.791Z,90.80
2019-04-23T20:48:53.069Z,91.10
2019-04-23T20:52:00.175Z,91.20
2019-04-23T20:58:09.433Z,91.30
2019-04-23T21:01:46.757Z,91.40
2019-04-23T21:04:51.117Z,91.60
2019-04-23T21:07:54.116Z,91.70
2019-04-23T21:14:03.336Z,92.00
2019-04-23T21:16:48.138Z,92.10
2019-04-23T21:20:21.210Z,92.20
2019-04-23T21:25:52.426Z,92.30
2019-04-23T21:28:58.806Z,92.50
2019-04-23T21:32:13.217Z,92.50
2019-04-23T21:35:20.290Z,92.60
2019-04-23T21:38:11.392Z,93.00
2019-04-23T21:44:45.407Z,93.00
2019-04-23T21:50:58.068Z,93.50
2019-04-23T21:53:54.970Z,93.40
2019-04-23T21:57:11.014Z,93.40
2019-04-23T22:00:13.835Z,93.60
2019-04-23T22:03:49.512Z,93.60
2019-04-23T22:13:29.486Z,93.80
2019-04-23T22:16:35.972Z,94.00
2019-04-23T22:19:38.347Z,94.00
2019-04-23T22:22:49.870Z,94.10
2019-04-23T22:25:48.936Z,94.10
2019-04-23T22:28:58.396Z,94.40
2019-04-23T22:31:47.394Z,94.50
2019-04-23T22:34:55.695Z,94.70
2019-04-23T22:38:09.123Z,94.90
2019-04-23T22:41:04.797Z,95.00
2019-04-23T22:44:05.105Z,95.00
2019-04-23T22:47:00.658Z,95.30
2019-04-23T22:50:18.602Z,95.50
2019-04-23T22:53:08.102Z,95.60
2019-04-23T22:56:12.132Z,95.50
2019-04-23T23:02:46.659Z,96.10
2019-04-23T23:05:56.437Z,96.20
2019-04-23T23:08:59.948Z,96.60
2019-04-23T23:14:54.793Z,96.90
2019-04-23T23:18:07.236Z,97.10
2019-04-23T23:20:59.679Z,97.30
2019-04-23T23:24:00.034Z,97.30
2019-04-23T23:26:57.138Z,97.40
2019-04-23T23:30:16.080Z,97.60
2019-04-23T23:33:13.303Z,97.30
2019-04-23T23:39:19.661Z,97.60
2019-04-23T23:48:18.605Z,98.50
2019-04-23T23:51:23.259Z,98.70
2019-04-23T23:54:17.649Z,98.90
